createdAt,value
2023-02-05T00:01:57.812Z,56.81
2023-02-05T00:07:03.012Z,57.43
2023-02-05T00:12:07.071Z,57.12
2023-02-05T00:17:10.758Z,57.25
2023-02-05T00:22:15.618Z,57.09
2023-02-05T00:27:18.923Z,56.88
2023-02-05T00:32:22.524Z,56.84
2023-02-05T00:37:27.585Z,56.91
2023-02-05T00:42:30.984Z,57.24
2023-02-05T00:47:34.599Z,56.89
2023-02-05T00:52:39.538Z,57.19
2023-02-05T00:57:43.164Z,56.55
2023-02-05T01:02:46.672Z,56.79
2023-02-05T01:07:51.785Z,56.63
2023-02-05T01:12:55.105Z,56.60
2023-02-05T01:18:00.261Z,56.96
2023-02-05T01:23:05.084Z,56.58
2023-02-05T01:28:08.456Z,56.18
2023-02-05T01:33:11.905Z,57.24
2023-02-05T01:38:17.016Z,56.91
2023-02-05T01:43:20.956Z,56.68
2023-02-05T01:48:30.564Z,57.17
2023-02-05T01:53:37.593Z,56.73
2023-02-05T01:58:47.133Z,56.66
2023-02-05T02:03:52.518Z,56.78
2023-02-05T02:08:57.573Z,56.58
2023-02-05T02:14:06.600Z,56.18
2023-02-05T02:19:19.890Z,56.19
2023-02-05T02:25:19.305Z,56.52
2023-02-05T02:30:29.266Z,56.36
2023-02-05T02:35:42.713Z,56.56
2023-02-05T02:40:50.163Z,56.11
2023-02-05T02:46:01.398Z,56.08
2023-02-05T02:51:07.728Z,56.32
2023-02-05T02:56:13.804Z,56.53
2023-02-05T03:01:21.475Z,56.62
2023-02-05T03:06:24.998Z,56.71
2023-02-05T03:11:29.114Z,56.62
2023-02-05T03:16:34.349Z,57.08
2023-02-05T03:21:43.232Z,57.42
2023-02-05T03:26:46.623Z,57.86
2023-02-05T03:32:00.229Z,58.34
2023-02-05T03:37:15.273Z,58.01
2023-02-05T03:42:31.430Z,58.34
2023-02-05T03:47:46.744Z,58.62
2023-02-05T03:52:56.589Z,58.67
2023-02-05T03:58:03.899Z,58.63
2023-02-05T04:03:08.714Z,59.48
2023-02-05T04:08:12.037Z,59.01
2023-02-05T04:13:15.353Z,59.92
2023-02-05T04:18:20.942Z,60.29
2023-02-05T04:23:24.481Z,60.08
2023-02-05T04:28:28.085Z,59.88
2023-02-05T04:33:32.924Z,60.82
2023-02-05T04:38:36.980Z,60.69
2023-02-05T04:43:40.438Z,61.08
2023-02-05T04:48:45.617Z,61.14
2023-02-05T04:53:49.075Z,61.01
2023-02-05T04:58:52.676Z,61.08
2023-02-05T05:03:57.534Z,61.13
2023-02-05T05:09:01.341Z,61.32
2023-02-05T05:14:04.860Z,60.93
2023-02-05T05:19:10.234Z,61.45
2023-02-05T05:24:13.632Z,61.53
2023-02-05T05:29:17.242Z,60.95
2023-02-05T05:34:22.137Z,61.29
2023-02-05T05:39:42.925Z,61.44
2023-02-05T05:44:50.342Z,61.85
2023-02-05T05:49:55.353Z,61.72
2023-02-05T05:54:58.765Z,61.57
2023-02-05T06:00:03.039Z,61.29
2023-02-05T06:05:09.043Z,60.69
2023-02-05T06:10:12.667Z,60.13
2023-02-05T06:15:16.134Z,59.35
2023-02-05T06:20:21.087Z,58.91
2023-02-05T06:25:24.670Z,58.40
2023-02-05T06:30:28.296Z,58.51
2023-02-05T06:35:33.562Z,56.87
2023-02-05T06:40:37.403Z,52.03
2023-02-05T06:45:40.879Z,49.55
2023-02-05T06:50:47.571Z,51.87
2023-02-05T06:55:50.932Z,53.13
2023-02-05T07:00:54.501Z,50.90
2023-02-05T07:06:03.642Z,39.90
2023-02-05T07:11:07.228Z,33.92
2023-02-05T07:16:10.835Z,29.63
2023-02-05T07:21:17.611Z,26.52
2023-02-05T07:26:21.100Z,24.15
2023-02-05T07:31:24.888Z,22.54
2023-02-05T07:36:29.960Z,20.52
2023-02-05T07:41:33.640Z,19.75
2023-02-05T07:46:37.348Z,17.77
2023-02-05T07:51:42.318Z,18.05
2023-02-05T07:56:45.979Z,17.74
2023-02-05T08:01:49.620Z,17.03
2023-02-05T08:06:54.592Z,16.21
2023-02-05T08:11:58.173Z,15.61
2023-02-05T08:17:02.165Z,16.83
2023-02-05T08:22:07.062Z,15.95
2023-02-05T08:27:10.630Z,15.89
2023-02-05T08:32:14.217Z,16.74
2023-02-05T08:37:19.255Z,16.35
2023-02-05T08:42:22.804Z,16.63
2023-02-05T08:47:27.816Z,17.68
2023-02-05T08:52:32.824Z,18.60
2023-02-05T08:57:36.905Z,20.24
2023-02-05T09:02:41.932Z,23.37
2023-02-05T09:07:46.896Z,25.67
2023-02-05T09:12:50.196Z,27.61
2023-02-05T09:17:53.846Z,30.04
2023-02-05T09:22:58.570Z,31.67
2023-02-05T09:28:02.611Z,33.69
2023-02-05T09:33:05.980Z,35.06
2023-02-05T09:38:11.926Z,36.25
2023-02-05T09:43:28.963Z,36.96
2023-02-05T09:48:51.202Z,36.44
2023-02-05T09:54:01.917Z,37.07
2023-02-05T09:59:06.905Z,38.30
2023-02-05T10:04:11.673Z,39.45
2023-02-05T10:09:32.735Z,40.04
2023-02-05T10:14:49.302Z,41.57
2023-02-05T10:20:08.910Z,42.48
2023-02-05T10:25:50.957Z,43.50
2023-02-05T10:31:00.077Z,43.88
2023-02-05T10:36:07.479Z,44.49
2023-02-05T10:41:22.354Z,44.31
2023-02-05T10:46:32.583Z,44.07
2023-02-05T10:51:41.776Z,44.83
2023-02-05T10:56:47.117Z,45.46
2023-02-05T11:01:52.263Z,45.92
2023-02-05T11:06:56.109Z,46.28
2023-02-05T11:12:04.020Z,46.89
2023-02-05T11:17:21.738Z,46.66
2023-02-05T11:22:30.370Z,47.48
2023-02-05T11:27:36.347Z,47.33
2023-02-05T11:32:40.350Z,48.12
2023-02-05T11:37:44.678Z,47.90
2023-02-05T11:43:00.221Z,48.97
2023-02-05T11:48:07.160Z,49.19
2023-02-05T11:53:16.588Z,49.49
2023-02-05T11:58:36.138Z,49.40
2023-02-05T12:03:40.235Z,49.45
2023-02-05T12:08:49.710Z,49.80
2023-02-05T12:14:07.367Z,50.19
2023-02-05T12:19:18.055Z,50.11
2023-02-05T12:24:40.830Z,50.43
2023-02-05T12:30:05.240Z,49.96
2023-02-05T12:35:25.506Z,50.60
2023-02-05T12:40:45.332Z,50.43
2023-02-05T12:46:01.418Z,50.74
2023-02-05T12:51:14.458Z,51.21
2023-02-05T12:56:33.077Z,51.06
2023-02-05T13:01:44.017Z,51.00
2023-02-05T13:06:53.794Z,50.86
2023-02-05T13:12:00.945Z,51.03
2023-02-05T13:17:14.237Z,50.68
2023-02-05T13:22:38.832Z,51.06
2023-02-05T13:28:02.616Z,50.76
2023-02-05T13:33:08.706Z,51.52
2023-02-05T13:38:33.720Z,51.16
2023-02-05T13:44:02.409Z,52.42
2023-02-05T13:49:46.997Z,52.33
2023-02-05T13:55:09.120Z,52.00
2023-02-05T14:00:15.922Z,51.76
2023-02-05T14:05:30.663Z,52.62
2023-02-05T14:10:39.313Z,52.26
2023-02-05T14:15:44.270Z,52.43
2023-02-05T14:20:47.988Z,53.22
2023-02-05T14:26:11.197Z,53.68
2023-02-05T14:31:59.682Z,53.78
2023-02-05T14:37:03.517Z,53.77
2023-02-05T14:42:09.726Z,54.12
2023-02-05T14:47:22.979Z,54.28
2023-02-05T14:52:29.843Z,54.33
2023-02-05T14:57:43.757Z,54.96
2023-02-05T15:03:28.787Z,54.67
2023-02-05T15:08:44.445Z,54.68
2023-02-05T15:14:20.294Z,55.29
2023-02-05T15:19:25.197Z,54.49
2023-02-05T15:24:29.323Z,54.00
2023-02-05T15:29:37.347Z,54.50
2023-02-05T15:34:47.269Z,54.41
2023-02-05T15:39:54.813Z,54.56
2023-02-05T15:44:58.528Z,54.27
2023-02-05T15:50:05.534Z,54.21
2023-02-05T15:55:15.063Z,54.52
2023-02-05T16:00:24.001Z,54.97
2023-02-05T16:05:30.477Z,54.94
2023-02-05T16:10:36.591Z,54.80
2023-02-05T16:15:43.496Z,54.79
2023-02-05T16:20:52.445Z,55.12
2023-02-05T16:25:59.172Z,54.72
2023-02-05T16:31:03.571Z,54.88
2023-02-05T16:36:16.672Z,55.37
2023-02-05T16:41:25.322Z,55.04
2023-02-05T16:46:30.651Z,55.56
2023-02-05T16:51:56.704Z,55.57
2023-02-05T16:57:05.693Z,55.83
2023-02-05T17:02:27.616Z,55.64
2023-02-05T17:07:34.160Z,56.10
2023-02-05T17:12:40.978Z,56.26
2023-02-05T17:17:52.025Z,56.44
2023-02-05T17:23:14.601Z,56.53
2023-02-05T17:28:21.689Z,56.65
2023-02-05T17:33:27.067Z,56.71
2023-02-05T17:38:32.077Z,56.74
2023-02-05T17:43:35.617Z,56.96
2023-02-05T17:48:40.111Z,56.86
2023-02-05T17:53:45.071Z,56.58
2023-02-05T17:58:48.701Z,56.62
2023-02-05T18:03:52.154Z,56.63
2023-02-05T18:08:57.148Z,56.51
2023-02-05T18:14:00.685Z,56.28
2023-02-05T18:19:04.371Z,56.72
2023-02-05T18:24:09.405Z,56.74
2023-02-05T18:29:13.137Z,56.57
2023-02-05T18:34:16.821Z,56.99
2023-02-05T18:39:21.809Z,57.01
2023-02-05T18:44:25.773Z,57.15
2023-02-05T18:49:29.416Z,57.07
2023-02-05T18:54:34.703Z,56.95
2023-02-05T18:59:38.422Z,57.15
2023-02-05T19:04:42.202Z,57.34
2023-02-05T19:09:47.226Z,57.13
2023-02-05T19:14:51.013Z,56.76
2023-02-05T19:19:55.275Z,57.26
2023-02-05T19:25:00.298Z,56.96
2023-02-05T19:30:04.065Z,57.08
2023-02-05T19:35:08.159Z,56.48
2023-02-05T19:40:15.515Z,56.94
2023-02-05T19:45:18.977Z,56.60
2023-02-05T19:50:22.677Z,56.29
2023-02-05T19:55:27.681Z,56.21
2023-02-05T20:00:31.359Z,56.25
2023-02-05T20:05:37.331Z,55.89
2023-02-05T20:10:42.394Z,55.54
2023-02-05T20:15:45.941Z,55.50
2023-02-05T20:20:49.604Z,55.43
2023-02-05T20:25:59.023Z,55.67
2023-02-05T20:31:20.161Z,55.47
2023-02-05T20:36:23.695Z,55.20
2023-02-05T20:41:29.251Z,55.40
2023-02-05T20:46:33.211Z,55.50
2023-02-05T20:51:37.550Z,55.33
2023-02-05T20:56:42.899Z,55.23
2023-02-05T21:01:46.704Z,55.01
2023-02-05T21:06:50.562Z,55.26
2023-02-05T21:11:55.864Z,55.21
2023-02-05T21:16:59.559Z,55.12
2023-02-05T21:22:03.099Z,55.04
2023-02-05T21:27:08.248Z,54.24
2023-02-05T21:32:11.815Z,54.52
2023-02-05T21:37:15.596Z,54.37
2023-02-05T21:42:20.643Z,54.08
2023-02-05T21:47:24.263Z,54.12
2023-02-05T21:52:27.734Z,54.37
2023-02-05T21:57:32.798Z,54.29
2023-02-05T22:02:36.198Z,54.28
2023-02-05T22:07:39.968Z,54.24
2023-02-05T22:12:44.702Z,53.96
2023-02-05T22:17:48.010Z,53.71
2023-02-05T22:22:51.537Z,54.17
2023-02-05T22:27:56.776Z,53.80
2023-02-05T22:33:00.227Z,54.09
2023-02-05T22:38:03.835Z,54.36
2023-02-05T22:43:11.445Z,53.89
2023-02-05T22:48:15.078Z,54.06
2023-02-05T22:53:18.435Z,54.45
2023-02-05T22:58:23.450Z,54.06
2023-02-05T23:03:26.918Z,54.32
2023-02-05T23:08:30.551Z,53.92
2023-02-05T23:13:35.559Z,54.18
2023-02-05T23:18:39.538Z,54.12
2023-02-05T23:23:43.724Z,53.96
2023-02-05T23:28:49.052Z,54.19
2023-02-05T23:33:53.168Z,54.31
2023-02-05T23:38:58.303Z,54.45
2023-02-05T23:44:04.332Z,54.59
2023-02-05T23:49:08.677Z,54.81
2023-02-05T23:54:13.226Z,54.86
2023-02-05T23:59:18.343Z,54.33
